Time;durP1;ratioP1;P1;durP2;ratioP2;P2;SDS_P1;SDS_P2;PMS_P1;PMS_P2;Temp;Humidity;BMP_temperature;BMP_pressure;BME280_temperature;BME280_humidity;BME280_pressure;Samples;Min_cycle;Max_cycle;Signal;HPM_P1;HPM_P2
2021/03/20 00:01:55;;;;;;;;;;;;;;;-4.42;85.09;103038.25;5054621;28;2094;-73
2021/03/20 00:04:20;;;;;;;;;;;;;;;-4.41;85.57;103046.16;5054902;28;992;-72
2021/03/20 00:06:50;;;;;;;;;;;;;;;-4.32;84.19;103043.38;5054963;28;2070;-73
2021/03/20 00:09:19;;;;;;;;;;;;;;;-4.43;84.48;103044.66;5054117;28;2011;-73
2021/03/20 00:11:47;;;;;;;;;;;;;;;-4.52;85.29;103043.94;5055145;28;2038;-73
2021/03/20 00:14:16;;;;;;;;;;;;;;;-4.57;85.22;103049.94;5054797;28;1898;-73
2021/03/20 00:16:41;;;;;;;;;;;;;;;-4.57;86.02;103040.97;5054980;28;1058;-72
2021/03/20 00:19:06;;;;;;;;;;;;;;;-4.64;85.39;103043.59;5054531;28;1357;-73
2021/03/20 00:21:32;;;;;;;;;;;;;;;-4.70;86.11;103049.75;5054212;28;2038;-73
2021/03/20 00:23:58;;;;;;;;;;;;;;;-4.73;86.18;103042.84;5036748;28;955;-73
2021/03/20 00:26:24;;;;;;;;;;;;;;;-4.75;86.22;103023.34;5054511;28;2097;-73
2021/03/20 00:28:51;;;;;;;;;;;;;;;-4.70;86.37;103019.25;5054680;28;1353;-73
2021/03/20 00:31:16;;;;;;;;;;;;;;;-4.67;86.65;103026.94;5055177;28;2088;-73
2021/03/20 00:33:42;;;;;;;;;;;;;;;-4.66;86.16;103029.47;5054489;28;1957;-73
2021/03/20 00:36:09;;;;;;;;;;;;;;;-4.64;85.96;103034.66;5054280;28;2022;-73
2021/03/20 00:38:35;;;;;;;;;;;;;;;-4.67;86.22;103025.13;5057523;28;2096;-73
2021/03/20 00:41:02;;;;;;;;;;;;;;;-4.66;86.30;103013.28;5059026;28;1971;-73
2021/03/20 00:43:28;;;;;;;;;;;;;;;-4.64;85.96;103011.22;5058983;28;810;-73
2021/03/20 00:45:54;;;;;;;;;;;;;;;-4.66;86.00;103017.84;5058998;28;1978;-73
2021/03/20 00:48:26;;;;;;;;;;;;;;;-4.72;86.19;103022.97;5060025;28;1297;-73
2021/03/20 00:50:52;;;;;;;;;;;;;;;-4.73;85.81;103023.97;5059688;28;1090;-73
2021/03/20 00:53:18;;;;;;;;;;;;;;;-4.80;86.06;103028.44;5058531;28;1039;-73
2021/03/20 00:55:43;;;;;;;;;;;;;;;-4.93;86.65;103029.13;5058203;28;1976;-73
2021/03/20 00:58:19;;;;;;;;;;;;;;;-5.01;86.62;103031.06;5058096;28;2037;-73
2021/03/20 01:00:45;;;;;;;;;;;;;;;-5.05;87.06;103030.63;5058960;28;880;-73
2021/03/20 01:03:11;;;;;;;;;;;;;;;-5.06;87.47;103033.50;5058803;28;853;-73
2021/03/20 01:05:36;;;;;;;;;;;;;;;-5.12;87.69;103018.91;5058889;28;870;-73
2021/03/20 01:08:01;;;;;;;;;;;;;;;-5.08;88.15;103028.28;5040499;28;1419;-73
2021/03/20 01:10:27;;;;;;;;;;;;;;;-5.03;87.98;103020.47;5058446;28;1040;-73
2021/03/20 01:12:52;;;;;;;;;;;;;;;-4.98;88.23;103023.47;5049035;28;1259;-73
2021/03/20 01:15:18;;;;;;;;;;;;;;;-4.92;87.63;103027.25;5038279;28;1898;-73
2021/03/20 01:17:44;;;;;;;;;;;;;;;-4.94;87.93;103029.31;5038531;28;897;-73
2021/03/20 01:20:11;;;;;;;;;;;;;;;-4.93;87.43;103034.50;5020724;28;1381;-73
2021/03/20 01:22:36;;;;;;;;;;;;;;;-5.01;87.40;103031.91;5040124;28;830;-73
2021/03/20 01:25:03;;;;;;;;;;;;;;;-5.00;87.43;103036.28;5037784;28;850;-73
2021/03/20 01:27:28;;;;;;;;;;;;;;;-5.13;86.93;103046.88;5037653;28;1121;-73
2021/03/20 01:29:54;;;;;;;;;;;;;;;-5.25;87.49;103040.25;5054928;28;1647;-73
2021/03/20 01:32:19;;;;;;;;;;;;;;;-5.39;88.30;103031.13;5058135;28;1055;-73
2021/03/20 01:34:44;;;;;;;;;;;;;;;-5.47;88.33;103021.25;5057826;28;2105;-74
2021/03/20 01:37:10;;;;;;;;;;;;;;;-5.51;88.12;103020.78;5057491;28;1051;-73
2021/03/20 01:39:35;;;;;;;;;;;;;;;-5.59;88.87;103011.97;5057517;28;2074;-73
2021/03/20 01:42:05;;;;;;;;;;;;;;;-5.60;89.10;103013.00;5040036;28;1629;-73
2021/03/20 01:44:30;;;;;;;;;;;;;;;-5.64;89.41;103001.75;5039593;28;2288;-73
2021/03/20 01:46:56;;;;;;;;;;;;;;;-5.63;89.73;103013.34;5056788;28;1492;-73
2021/03/20 01:49:33;;;;;;;;;;;;;;;-5.63;89.72;103005.28;5056228;28;2122;-73
2021/03/20 01:52:03;;;;;;;;;;;;;;;-5.59;90.29;103004.75;5057370;28;931;-73
2021/03/20 01:54:40;;;;;;;;;;;;;;;-5.52;89.62;103007.50;5037752;28;1894;-74
2021/03/20 01:57:06;;;;;;;;;;;;;;;-5.56;90.05;103009.72;5037400;28;964;-73
2021/03/20 01:59:31;;;;;;;;;;;;;;;-5.58;89.37;103009.09;5051185;28;1988;-73
2021/03/20 02:01:57;;;;;;;;;;;;;;;-5.57;89.89;103005.38;5057689;28;1055;-73
2021/03/20 02:04:23;;;;;;;;;;;;;;;-5.56;89.34;103003.53;5056993;28;1039;-73
2021/03/20 02:06:48;;;;;;;;;;;;;;;-5.58;89.77;102998.31;5039408;28;900;-73
2021/03/20 02:09:14;;;;;;;;;;;;;;;-5.54;89.68;103006.88;5056847;28;2141;-73
2021/03/20 02:12:02;;;;;;;;;;;;;;;-5.63;89.73;103002.59;5056513;28;2176;-73
2021/03/20 02:14:52;;;;;;;;;;;;;;;-5.64;89.70;103008.97;5056726;28;2014;-73
2021/03/20 02:17:31;;;;;;;;;;;;;;;-5.76;89.65;103004.03;5056671;28;1008;-73
2021/03/20 02:20:11;;;;;;;;;;;;;;;-5.81;89.86;103011.81;5057346;28;1330;-73
2021/03/20 02:22:37;;;;;;;;;;;;;;;-5.89;90.04;103007.31;5056700;28;2002;-73
2021/03/20 02:25:53;;;;;;;;;;;;;;;-5.90;90.15;103007.50;5055641;28;2122;-73
2021/03/20 02:28:39;;;;;;;;;;;;;;;-5.86;90.49;103003.47;5056108;28;2015;-73
2021/03/20 02:31:33;;;;;;;;;;;;;;;-5.96;90.31;103006.41;5057131;28;1007;-73
2021/03/20 02:34:17;;;;;;;;;;;;;;;-5.90;90.60;102999.44;5054647;28;1983;-73
2021/03/20 02:37:00;;;;;;;;;;;;;;;-5.82;90.81;103001.25;5056075;28;2141;-73
2021/03/20 02:39:47;;;;;;;;;;;;;;;-5.75;90.86;103003.00;5056281;28;1385;-74
2021/03/20 02:42:30;;;;;;;;;;;;;;;-5.71;91.27;103003.47;5056590;28;996;-73
2021/03/20 02:45:07;;;;;;;;;;;;;;;-5.77;91.15;103009.59;5056204;28;2140;-73
2021/03/20 02:47:48;;;;;;;;;;;;;;;-5.82;91.14;103003.94;5056005;28;2038;-73
2021/03/20 02:50:20;;;;;;;;;;;;;;;-5.87;90.68;103005.28;5056060;28;1412;-73
2021/03/20 02:52:54;;;;;;;;;;;;;;;-5.89;91.47;103006.50;5055798;28;2164;-73
2021/03/20 02:55:38;;;;;;;;;;;;;;;-5.82;91.11;103007.44;5055905;28;1894;-73
2021/03/20 02:58:18;;;;;;;;;;;;;;;-5.77;91.69;103006.91;5055570;28;2085;-73
2021/03/20 03:00:47;;;;;;;;;;;;;;;-5.71;91.24;103007.03;5055129;28;1059;-73
2021/03/20 03:03:14;;;;;;;;;;;;;;;-5.71;91.58;103008.88;5055977;28;2159;-73
2021/03/20 03:05:51;;;;;;;;;;;;;;;-5.71;91.36;102995.41;5056140;28;1035;-73
2021/03/20 03:08:26;;;;;;;;;;;;;;;-5.72;91.60;102993.75;5056056;28;1278;-73
2021/03/20 03:11:00;;;;;;;;;;;;;;;-5.75;92.22;102991.41;5057327;28;956;-73
2021/03/20 03:13:30;;;;;;;;;;;;;;;-5.74;92.24;102993.09;5055248;28;2192;-73
2021/03/20 03:16:00;;;;;;;;;;;;;;;-5.74;92.22;103004.69;5056138;28;1019;-73
2021/03/20 03:18:50;;;;;;;;;;;;;;;-5.74;91.78;102996.63;5055709;28;1318;-73
2021/03/20 03:21:18;;;;;;;;;;;;;;;-5.65;92.36;102993.88;5055913;28;1845;-73
2021/03/20 03:23:44;;;;;;;;;;;;;;;-5.70;92.33;102989.00;5060848;28;2259;-73
2021/03/20 03:26:20;;;;;;;;;;;;;;;-5.72;92.22;102989.19;5058004;28;813;-73
2021/03/20 03:28:49;;;;;;;;;;;;;;;-5.78;92.11;102987.25;5055303;28;2049;-73
2021/03/20 03:31:28;;;;;;;;;;;;;;;-5.76;91.85;102979.81;5055875;28;901;-73
2021/03/20 03:34:24;;;;;;;;;;;;;;;-5.68;92.09;102968.13;5055089;28;2229;-73
2021/03/20 03:37:02;;;;;;;;;;;;;;;-5.60;92.26;102967.22;5032200;28;1247;-73
2021/03/20 03:39:51;;;;;;;;;;;;;;;-5.57;92.40;102967.69;5055709;28;1435;-73
2021/03/20 03:42:18;;;;;;;;;;;;;;;-5.43;92.97;102968.72;5055431;28;833;-73
2021/03/20 03:44:46;;;;;;;;;;;;;;;-5.27;92.55;102973.09;5054763;28;2097;-74
2021/03/20 03:47:20;;;;;;;;;;;;;;;-5.18;92.67;102965.75;5055127;28;932;-73
2021/03/20 03:49:45;;;;;;;;;;;;;;;-5.00;93.06;102962.66;5055384;28;1824;-73
2021/03/20 03:52:14;;;;;;;;;;;;;;;-4.80;92.85;102963.75;5054981;28;817;-73
2021/03/20 03:54:40;;;;;;;;;;;;;;;-4.65;92.40;102962.91;5054853;28;2058;-73
2021/03/20 03:57:36;;;;;;;;;;;;;;;-4.48;92.34;102955.41;5053416;28;931;-74
2021/03/20 04:00:10;;;;;;;;;;;;;;;-4.24;92.05;102943.41;5055139;28;1939;-73
2021/03/20 04:02:54;;;;;;;;;;;;;;;-4.06;91.06;102940.28;5053788;28;2060;-74
2021/03/20 04:05:41;;;;;;;;;;;;;;;-3.93;90.17;102939.53;5054649;28;2145;-74
2021/03/20 04:08:44;;;;;;;;;;;;;;;-3.85;89.57;102937.53;5057030;28;1274;-73
2021/03/20 04:11:30;;;;;;;;;;;;;;;-3.81;88.10;102936.13;5055060;28;969;-74
2021/03/20 04:14:19;;;;;;;;;;;;;;;-3.74;86.92;102952.34;5054122;28;2178;-73
2021/03/20 04:16:56;;;;;;;;;;;;;;;-3.73;87.39;102959.44;5054763;28;2086;-73
2021/03/20 04:19:42;;;;;;;;;;;;;;;-3.64;85.52;102963.63;5036455;28;2008;-73
2021/03/20 04:22:28;;;;;;;;;;;;;;;-3.60;85.79;102956.84;5055019;28;952;-73
2021/03/20 04:25:05;;;;;;;;;;;;;;;-3.56;86.05;102968.06;5039222;28;854;-73
2021/03/20 04:27:35;;;;;;;;;;;;;;;-3.53;84.93;102975.78;5054856;28;945;-73
2021/03/20 04:30:24;;;;;;;;;;;;;;;-3.49;85.28;102971.66;5054273;28;1987;-73
2021/03/20 04:33:22;;;;;;;;;;;;;;;-3.46;84.93;102965.88;5054885;28;869;-73
2021/03/20 04:36:02;;;;;;;;;;;;;;;-3.39;84.52;102963.22;5050653;28;1962;-73
2021/03/20 04:38:28;;;;;;;;;;;;;;;-3.33;84.43;102964.28;5054482;28;2052;-73
2021/03/20 04:41:00;;;;;;;;;;;;;;;-3.32;84.05;102957.81;5054517;28;864;-73
2021/03/20 04:43:28;;;;;;;;;;;;;;;-3.28;83.36;102954.53;5054368;28;2117;-73
2021/03/20 04:45:59;;;;;;;;;;;;;;;-3.25;83.13;102962.25;5054371;28;1003;-73
2021/03/20 04:48:29;;;;;;;;;;;;;;;-3.20;82.81;102950.84;5054171;28;2030;-73
2021/03/20 04:51:26;;;;;;;;;;;;;;;-3.17;82.48;102953.13;5056663;28;1167;-73
2021/03/20 04:54:25;;;;;;;;;;;;;;;-3.13;82.46;102951.72;5054195;28;1893;-73
2021/03/20 04:56:55;;;;;;;;;;;;;;;-3.12;81.08;102947.97;5010603;28;1649;-73
2021/03/20 04:59:39;;;;;;;;;;;;;;;-3.10;79.69;102954.00;5053776;28;2074;-73
2021/03/20 05:02:15;;;;;;;;;;;;;;;-3.09;79.38;102952.97;5054817;28;906;-73
2021/03/20 05:04:44;;;;;;;;;;;;;;;-3.08;79.52;102954.66;5054430;28;944;-73
2021/03/20 05:07:09;;;;;;;;;;;;;;;-3.07;78.53;102945.50;5053872;28;2089;-73
2021/03/20 05:09:35;;;;;;;;;;;;;;;-3.04;78.45;102938.88;5054417;28;1286;-73
2021/03/20 05:12:15;;;;;;;;;;;;;;;-2.99;76.63;102947.22;5036653;28;876;-73
2021/03/20 05:14:46;;;;;;;;;;;;;;;-3.01;76.63;102943.88;5037887;28;2164;-73
2021/03/20 05:17:16;;;;;;;;;;;;;;;-2.99;76.65;102931.00;5053886;28;858;-73
2021/03/20 05:19:42;;;;;;;;;;;;;;;-3.00;76.15;102945.53;5036917;28;1351;-73
2021/03/20 05:22:16;;;;;;;;;;;;;;;-2.93;75.63;102940.97;5054995;28;801;-73
2021/03/20 05:24:41;;;;;;;;;;;;;;;-2.94;75.67;102942.03;5056536;28;2208;-73
2021/03/20 05:27:10;;;;;;;;;;;;;;;-2.93;75.45;102943.69;5058911;28;945;-73
2021/03/20 05:29:36;;;;;;;;;;;;;;;-2.92;75.20;102941.84;5058042;28;1715;-73
2021/03/20 05:32:04;;;;;;;;;;;;;;;-2.89;75.16;102949.53;5058998;28;1052;-73
2021/03/20 05:34:32;;;;;;;;;;;;;;;-2.89;76.04;102950.38;5059837;28;2067;-73
2021/03/20 05:36:58;;;;;;;;;;;;;;;-2.87;75.57;102950.19;5058087;28;920;-73
2021/03/20 05:39:23;;;;;;;;;;;;;;;-2.84;75.07;102963.25;5057178;28;2169;-73
2021/03/20 05:42:21;;;;;;;;;;;;;;;-2.80;75.15;102961.84;5058093;28;865;-73
2021/03/20 05:44:59;;;;;;;;;;;;;;;-2.77;74.58;102964.13;5057365;28;2105;-73
2021/03/20 05:47:39;;;;;;;;;;;;;;;-2.73;74.61;102967.28;5057817;28;999;-73
2021/03/20 05:50:32;;;;;;;;;;;;;;;-2.72;74.02;102975.16;5057429;28;2195;-73
2021/03/20 05:53:25;;;;;;;;;;;;;;;-2.71;74.88;102971.44;5057865;28;851;-73
2021/03/20 05:55:59;;;;;;;;;;;;;;;-2.68;75.04;102970.22;5057095;28;2073;-73
2021/03/20 05:58:33;;;;;;;;;;;;;;;-2.63;74.87;102970.44;5056883;28;1978;-73
2021/03/20 06:01:23;;;;;;;;;;;;;;;-2.64;74.75;102968.75;5057293;28;1039;-73
2021/03/20 06:03:55;;;;;;;;;;;;;;;-2.60;74.57;102969.19;5057866;28;1371;-73
2021/03/20 06:06:40;;;;;;;;;;;;;;;-2.55;75.21;102961.31;5057075;28;2067;-73
2021/03/20 06:09:23;;;;;;;;;;;;;;;-2.53;73.54;102970.88;5057418;28;1321;-73
2021/03/20 06:12:21;;;;;;;;;;;;;;;-2.48;73.46;102968.38;5057171;28;1054;-74
2021/03/20 06:14:58;;;;;;;;;;;;;;;-2.43;73.51;102962.38;5056464;28;2139;-74
2021/03/20 06:17:48;;;;;;;;;;;;;;;-2.42;72.67;102964.06;5059666;28;837;-74
2021/03/20 06:20:33;;;;;;;;;;;;;;;-2.37;72.55;102955.28;5057486;28;1275;-74
2021/03/20 06:23:22;;;;;;;;;;;;;;;-2.32;72.67;102948.25;5056529;28;2010;-74
2021/03/20 06:26:00;;;;;;;;;;;;;;;-2.25;72.60;102944.69;5057181;28;1035;-73
2021/03/20 06:28:46;;;;;;;;;;;;;;;-2.20;71.47;102936.81;5054990;28;2047;-74
2021/03/20 06:31:21;;;;;;;;;;;;;;;-2.06;71.91;102933.06;5056779;28;2187;-74
2021/03/20 06:33:53;;;;;;;;;;;;;;;-1.93;71.55;102932.25;5056890;28;1890;-74
2021/03/20 06:36:43;;;;;;;;;;;;;;;-1.78;71.68;102932.00;5056865;28;1452;-74
2021/03/20 06:39:37;;;;;;;;;;;;;;;-1.73;70.80;102932.22;5056499;28;1982;-74
2021/03/20 06:42:35;;;;;;;;;;;;;;;-1.74;70.04;102936.81;5056731;28;1015;-74
2021/03/20 06:45:07;;;;;;;;;;;;;;;-1.68;70.28;102937.00;5051559;28;2192;-74
2021/03/20 06:47:35;;;;;;;;;;;;;;;-1.65;69.78;102936.59;5058340;28;2073;-74
2021/03/20 06:50:06;;;;;;;;;;;;;;;-1.53;69.57;102945.75;5058204;28;2039;-74
2021/03/20 06:52:35;;;;;;;;;;;;;;;-1.34;69.60;102949.47;5062676;28;1056;-74
2021/03/20 06:55:05;;;;;;;;;;;;;;;-1.23;69.34;102953.41;5058622;28;1890;-74
2021/03/20 06:57:30;;;;;;;;;;;;;;;-1.22;68.03;102952.38;5056022;28;2150;-74
2021/03/20 06:59:58;;;;;;;;;;;;;;;-1.03;68.36;102943.31;5056396;28;2082;-74
2021/03/20 07:02:49;;;;;;;;;;;;;;;-0.73;67.74;102953.63;5056423;28;993;-74
2021/03/20 07:05:18;;;;;;;;;;;;;;;-0.68;67.30;102950.28;5056265;28;1040;-74
2021/03/20 07:08:23;;;;;;;;;;;;;;;-0.65;66.26;102953.38;5055536;28;2066;-74
2021/03/20 07:10:53;;;;;;;;;;;;;;;-0.70;65.90;102957.81;5054734;28;1922;-74
2021/03/20 07:13:26;;;;;;;;;;;;;;;-0.37;66.15;102954.91;5057017;28;2097;-74
2021/03/20 07:16:04;;;;;;;;;;;;;;;-0.23;65.70;102955.66;5055628;28;2056;-74
2021/03/20 07:18:37;;;;;;;;;;;;;;;-0.25;64.27;102950.44;5055684;28;1317;-74
2021/03/20 07:21:38;;;;;;;;;;;;;;;-0.29;64.59;102949.22;5056215;28;854;-74
2021/03/20 07:24:09;;;;;;;;;;;;;;;-0.11;64.65;102950.34;5055628;28;1070;-74
2021/03/20 07:26:53;;;;;;;;;;;;;;;0.09;63.73;102956.47;5055665;28;2053;-74
2021/03/20 07:29:21;;;;;;;;;;;;;;;0.32;63.04;102952.31;5055334;28;1870;-74
2021/03/20 07:31:58;;;;;;;;;;;;;;;0.37;62.73;102966.06;5056064;28;872;-74
2021/03/20 07:34:29;;;;;;;;;;;;;;;0.50;62.73;102951.50;5055745;28;1894;-74
2021/03/20 07:37:18;;;;;;;;;;;;;;;0.84;61.95;102950.09;5055805;28;1893;-74
2021/03/20 07:39:49;;;;;;;;;;;;;;;0.97;60.82;102954.56;5056863;28;2137;-74
2021/03/20 07:42:34;;;;;;;;;;;;;;;1.17;59.35;102957.03;5058096;28;913;-74
2021/03/20 07:45:17;;;;;;;;;;;;;;;1.40;59.53;102960.94;5055802;28;2228;-75
2021/03/20 07:47:58;;;;;;;;;;;;;;;1.53;59.70;102955.31;5055151;28;988;-74
2021/03/20 07:50:23;;;;;;;;;;;;;;;1.51;57.83;102965.59;5055518;28;995;-74
2021/03/20 07:53:07;;;;;;;;;;;;;;;1.64;57.94;102961.84;5056191;28;960;-74
2021/03/20 07:55:57;;;;;;;;;;;;;;;2.13;56.66;102945.38;5057472;28;1927;-74
2021/03/20 07:58:41;;;;;;;;;;;;;;;1.74;57.09;102956.69;5054404;28;2086;-74
2021/03/20 08:01:18;;;;;;;;;;;;;;;1.57;57.65;102952.94;5055156;28;841;-74
2021/03/20 08:04:05;;;;;;;;;;;;;;;1.72;57.86;102944.38;5055032;28;2038;-74
2021/03/20 08:06:30;;;;;;;;;;;;;;;2.41;55.69;102945.53;5054765;28;917;-74
2021/03/20 08:09:18;;;;;;;;;;;;;;;2.75;53.90;102950.34;5054650;28;1263;-74
2021/03/20 08:11:45;;;;;;;;;;;;;;;2.98;53.75;102947.59;5053725;28;1263;-74
2021/03/20 08:14:21;;;;;;;;;;;;;;;3.14;52.23;102935.09;5054447;28;2085;-74
2021/03/20 08:16:46;;;;;;;;;;;;;;;3.42;51.51;102938.91;5055358;28;933;-74
2021/03/20 08:19:17;;;;;;;;;;;;;;;3.58;50.32;102934.53;5054448;28;1262;-74
2021/03/20 08:22:07;;;;;;;;;;;;;;;4.50;49.94;102925.13;5055242;28;996;-74
2021/03/20 08:25:09;;;;;;;;;;;;;;;5.20;47.95;102927.38;5054926;28;1999;-74
2021/03/20 08:27:53;;;;;;;;;;;;;;;5.04;47.67;102927.19;5055241;28;926;-74
2021/03/20 08:30:30;;;;;;;;;;;;;;;4.79;48.02;102924.13;5053931;28;1952;-74
2021/03/20 08:33:20;;;;;;;;;;;;;;;4.18;48.85;102911.22;5050686;28;2019;-74
2021/03/20 08:35:54;;;;;;;;;;;;;;;4.13;48.81;102919.34;5055068;28;1890;-74
2021/03/20 08:38:19;;;;;;;;;;;;;;;5.71;45.33;102910.63;5054140;28;2090;-74
2021/03/20 08:40:47;;;;;;;;;;;;;;;6.09;43.19;102917.00;5055080;28;856;-74
2021/03/20 08:43:51;;;;;;;;;;;;;;;6.29;43.12;102919.09;5054862;28;2053;-74
2021/03/20 08:46:34;;;;;;;;;;;;;;;7.17;40.87;102906.63;5054706;28;1979;-74
2021/03/20 08:49:20;;;;;;;;;;;;;;;7.41;40.18;102907.78;5054828;28;1295;-74
2021/03/20 08:52:13;;;;;;;;;;;;;;;8.84;39.15;102904.09;5056066;28;1000;-74
2021/03/20 08:55:00;;;;;;;;;;;;;;;11.45;33.44;102890.84;5056322;28;1897;-74
2021/03/20 08:58:02;;;;;;;;;;;;;;;9.60;35.20;102890.97;5036747;28;2110;-74
2021/03/20 09:00:47;;;;;;;;;;;;;;;10.10;34.30;102901.03;5058433;28;2053;-74
2021/03/20 09:03:17;;;;;;;;;;;;;;;12.75;31.04;102883.59;5058839;28;917;-74
2021/03/20 09:05:53;;;;;;;;;;;;;;;10.94;33.50;102889.66;5061031;28;2061;-74
2021/03/20 09:08:27;;;;;;;;;;;;;;;8.17;36.69;102891.59;5038145;28;1255;-74
2021/03/20 09:11:28;;;;;;;;;;;;;;;7.61;39.02;102889.66;5039205;28;830;-74
2021/03/20 09:14:29;;;;;;;;;;;;;;;6.92;39.96;102900.78;5045306;28;2157;-74
2021/03/20 09:17:00;;;;;;;;;;;;;;;8.18;38.64;102893.22;5058243;28;952;-73
2021/03/20 09:19:31;;;;;;;;;;;;;;;9.34;36.39;102875.72;5058700;28;1310;-74
2021/03/20 09:22:03;;;;;;;;;;;;;;;10.31;34.89;102882.31;5058146;28;794;-74
2021/03/20 09:24:30;;;;;;;;;;;;;;;8.65;36.61;102878.25;5058180;28;2165;-74
2021/03/20 09:27:00;;;;;;;;;;;;;;;7.18;39.54;102887.13;5057729;28;2054;-72
2021/03/20 09:29:29;;;;;;;;;;;;;;;6.11;43.68;102898.38;5057677;28;1868;-72
2021/03/20 09:31:54;;;;;;;;;;;;;;;5.63;44.46;102907.28;5057802;28;876;-72
2021/03/20 09:34:33;;;;;;;;;;;;;;;5.00;46.52;102897.84;5057735;28;2002;-72
2021/03/20 09:37:18;;;;;;;;;;;;;;;4.78;46.13;102904.16;5059841;28;2140;-72
2021/03/20 09:39:51;;;;;;;;;;;;;;;4.35;47.53;102892.06;5038624;28;1330;-73
2021/03/20 09:42:29;;;;;;;;;;;;;;;4.61;47.27;102901.47;5035397;28;2230;-74
2021/03/20 09:45:00;;;;;;;;;;;;;;;4.68;46.67;102893.88;5057787;28;2143;-74
2021/03/20 09:47:31;;;;;;;;;;;;;;;4.69;46.72;102897.47;5057637;28;1954;-74
2021/03/20 09:50:08;;;;;;;;;;;;;;;4.82;46.27;102890.78;5058100;28;1258;-74
2021/03/20 09:52:46;;;;;;;;;;;;;;;4.73;46.88;102892.31;5057518;28;825;-74
2021/03/20 09:55:30;;;;;;;;;;;;;;;5.00;45.61;102884.16;5051109;28;2126;-74
2021/03/20 09:58:00;;;;;;;;;;;;;;;4.97;46.51;102884.69;5056980;28;2019;-74
2021/03/20 10:00:44;;;;;;;;;;;;;;;5.01;46.60;102894.03;5058234;28;893;-73
2021/03/20 10:03:09;;;;;;;;;;;;;;;5.08;46.18;102890.00;5057091;28;2054;-75
2021/03/20 10:05:35;;;;;;;;;;;;;;;5.42;46.08;102894.47;5057666;28;976;-74
2021/03/20 10:08:17;;;;;;;;;;;;;;;6.26;44.35;102883.94;5056959;28;2029;-74
2021/03/20 10:10:46;;;;;;;;;;;;;;;6.34;43.93;102883.44;5039507;28;829;-74
2021/03/20 10:13:35;;;;;;;;;;;;;;;6.65;44.12;102878.94;5057790;28;1734;-73
2021/03/20 10:16:04;;;;;;;;;;;;;;;7.19;43.27;102876.94;5057643;28;1890;-73
2021/03/20 10:18:43;;;;;;;;;;;;;;;6.68;43.28;102880.31;5055128;28;1951;-73
2021/03/20 10:21:23;;;;;;;;;;;;;;;6.13;44.81;102883.31;5049210;28;1848;-73
2021/03/20 10:23:56;;;;;;;;;;;;;;;6.87;44.24;102877.94;5058230;28;920;-73
2021/03/20 10:26:24;;;;;;;;;;;;;;;7.15;43.14;102882.16;5060670;28;1849;-74
2021/03/20 10:28:53;;;;;;;;;;;;;;;8.27;42.24;102875.88;5057290;28;1345;-73
2021/03/20 10:31:20;;;;;;;;;;;;;;;8.22;40.83;102872.31;5056226;28;1987;-73
2021/03/20 10:33:48;;;;;;;;;;;;;;;7.33;42.09;102875.31;5049697;28;1985;-73
2021/03/20 10:36:16;;;;;;;;;;;;;;;7.23;43.06;102867.06;5041190;28;1044;-73
2021/03/20 10:38:43;;;;;;;;;;;;;;;6.78;44.29;102852.91;5057211;28;2323;-74
2021/03/20 10:41:32;;;;;;;;;;;;;;;6.52;44.75;102855.56;5056368;28;2112;-74
2021/03/20 10:44:15;;;;;;;;;;;;;;;7.15;45.48;102858.25;5053664;28;2093;-74
2021/03/20 10:46:42;;;;;;;;;;;;;;;6.67;45.04;102863.03;5056539;28;2089;-74
2021/03/20 10:49:22;;;;;;;;;;;;;;;6.55;46.02;102848.72;5056337;28;1786;-74
2021/03/20 10:51:54;;;;;;;;;;;;;;;7.68;45.31;102836.06;5056447;28;852;-74
2021/03/20 10:54:24;;;;;;;;;;;;;;;7.42;44.62;102829.69;5056064;28;1897;-74
2021/03/20 10:56:52;;;;;;;;;;;;;;;7.83;44.67;102826.13;5057185;28;862;-74
2021/03/20 10:59:45;;;;;;;;;;;;;;;7.59;44.71;102826.69;5056598;28;1715;-73
2021/03/20 11:02:26;;;;;;;;;;;;;;;7.02;46.17;102824.97;5054079;28;1989;-73
2021/03/20 11:04:54;;;;;;;;;;;;;;;6.87;47.01;102812.88;5056587;28;868;-73
2021/03/20 11:07:23;;;;;;;;;;;;;;;7.11;47.27;102804.09;5055701;28;833;-73
2021/03/20 11:09:50;;;;;;;;;;;;;;;7.66;46.40;102798.91;5056622;28;1387;-73
2021/03/20 11:12:34;;;;;;;;;;;;;;;8.93;43.27;102799.63;5055850;28;853;-73
2021/03/20 11:15:00;;;;;;;;;;;;;;;10.15;40.87;102788.63;5056390;28;1898;-73
2021/03/20 11:17:29;;;;;;;;;;;;;;;11.01;40.00;102781.47;5053988;28;1468;-73
2021/03/20 11:20:08;;;;;;;;;;;;;;;11.35;38.27;102772.94;5052751;28;2303;-73
2021/03/20 11:22:41;;;;;;;;;;;;;;;10.62;39.56;102786.16;5046990;28;1959;-73
2021/03/20 11:25:15;;;;;;;;;;;;;;;10.93;39.69;102771.91;5047100;28;2040;-73
2021/03/20 11:27:41;;;;;;;;;;;;;;;11.91;38.25;102762.81;5055356;28;1715;-73
2021/03/20 11:30:15;;;;;;;;;;;;;;;13.15;35.68;102760.97;5054894;28;2014;-73
2021/03/20 11:32:44;;;;;;;;;;;;;;;13.59;34.54;102750.19;5039332;28;857;-73
2021/03/20 11:35:26;;;;;;;;;;;;;;;12.13;37.20;102752.97;5055153;28;2140;-73
2021/03/20 11:37:53;;;;;;;;;;;;;;;11.84;38.56;102738.28;5055200;28;2189;-73
2021/03/20 11:40:35;;;;;;;;;;;;;;;12.08;37.96;102755.84;5054875;28;2089;-73
2021/03/20 11:43:07;;;;;;;;;;;;;;;11.70;39.08;102753.22;5056202;28;996;-73
2021/03/20 11:45:37;;;;;;;;;;;;;;;13.04;37.02;102742.94;5056071;28;1947;-73
2021/03/20 11:48:22;;;;;;;;;;;;;;;11.85;38.13;102741.84;5055000;28;2126;-73
2021/03/20 11:50:54;;;;;;;;;;;;;;;10.50;41.51;102734.13;5055272;28;2113;-73
2021/03/20 11:53:24;;;;;;;;;;;;;;;10.71;41.54;102728.28;5055112;28;2182;-73
2021/03/20 11:55:51;;;;;;;;;;;;;;;10.35;41.77;102717.75;5054773;28;2384;-74
2021/03/20 11:58:34;;;;;;;;;;;;;;;10.72;41.27;102722.47;5054532;28;1813;-73
2021/03/20 12:01:21;;;;;;;;;;;;;;;10.39;41.87;102712.47;5054772;28;1845;-73
2021/03/20 12:03:47;;;;;;;;;;;;;;;10.77;41.85;102706.94;5054051;28;2433;-73
2021/03/20 12:06:15;;;;;;;;;;;;;;;11.29;40.74;102708.56;5055311;28;2183;-73
2021/03/20 12:08:54;;;;;;;;;;;;;;;10.95;40.99;102703.31;5054966;28;1361;-73
2021/03/20 12:11:39;;;;;;;;;;;;;;;10.63;43.19;102701.34;5035171;28;802;-73
2021/03/20 12:14:25;;;;;;;;;;;;;;;9.25;45.61;102698.25;5035594;28;1894;-73
2021/03/20 12:16:50;;;;;;;;;;;;;;;9.77;45.15;102691.09;5048600;28;2156;-73
2021/03/20 12:19:15;;;;;;;;;;;;;;;10.04;43.81;102684.19;5054597;28;2240;-73
2021/03/20 12:22:14;;;;;;;;;;;;;;;9.66;45.06;102684.88;5054969;28;825;-73
2021/03/20 12:24:51;;;;;;;;;;;;;;;9.21;46.28;102689.75;5039663;28;2078;-73
2021/03/20 12:27:25;;;;;;;;;;;;;;;8.68;47.59;102684.09;5054937;28;1016;-74
2021/03/20 12:29:57;;;;;;;;;;;;;;;7.87;49.74;102668.53;5055417;28;1266;-73
2021/03/20 12:33:02;;;;;;;;;;;;;;;7.84;50.31;102671.84;5054638;28;1008;-73
2021/03/20 12:35:31;;;;;;;;;;;;;;;7.59;51.14;102661.72;5017846;28;1975;-74
2021/03/20 12:38:05;;;;;;;;;;;;;;;8.24;50.60;102663.69;5034624;28;861;-73
2021/03/20 12:40:32;;;;;;;;;;;;;;;7.76;50.91;102655.91;5048565;28;2022;-73
2021/03/20 12:42:59;;;;;;;;;;;;;;;7.83;51.22;102653.69;5053737;28;943;-73
2021/03/20 12:45:28;;;;;;;;;;;;;;;7.66;51.92;102656.75;5053739;28;2101;-73
2021/03/20 12:47:53;;;;;;;;;;;;;;;7.60;52.55;102646.91;5037866;28;1011;-73
2021/03/20 12:50:19;;;;;;;;;;;;;;;7.23;53.79;102650.00;5054767;28;1318;-73
2021/03/20 12:52:44;;;;;;;;;;;;;;;6.99;54.51;102647.84;5054881;28;999;-73
2021/03/20 12:55:11;;;;;;;;;;;;;;;7.13;53.62;102635.16;5055516;28;2084;-73
2021/03/20 12:57:37;;;;;;;;;;;;;;;7.33;53.91;102633.47;5054377;28;944;-73
2021/03/20 13:00:15;;;;;;;;;;;;;;;7.53;53.64;102632.63;5055371;28;1258;-73
2021/03/20 13:02:41;;;;;;;;;;;;;;;7.41;53.28;102623.88;5054379;28;1383;-73
2021/03/20 13:05:07;;;;;;;;;;;;;;;6.99;54.54;102633.25;5054541;28;2174;-73
2021/03/20 13:07:32;;;;;;;;;;;;;;;6.80;54.21;102616.50;5053533;28;1854;-73
2021/03/20 13:09:58;;;;;;;;;;;;;;;6.53;54.69;102625.84;5054117;28;2101;-73
2021/03/20 13:12:23;;;;;;;;;;;;;;;6.52;55.09;102619.53;5053816;28;1167;-73
2021/03/20 13:14:48;;;;;;;;;;;;;;;6.50;55.61;102618.97;5036470;28;1902;-73
2021/03/20 13:17:15;;;;;;;;;;;;;;;6.17;56.33;102606.56;5036714;28;2031;-73
2021/03/20 13:19:40;;;;;;;;;;;;;;;5.83;56.97;102604.22;5054784;28;1349;-73
2021/03/20 13:22:06;;;;;;;;;;;;;;;5.67;58.41;102611.56;5054446;28;996;-73
2021/03/20 13:24:32;;;;;;;;;;;;;;;5.73;58.04;102601.47;5054211;28;1897;-73
2021/03/20 13:26:58;;;;;;;;;;;;;;;5.94;58.17;102594.94;5055037;28;857;-73
2021/03/20 13:29:23;;;;;;;;;;;;;;;5.96;57.79;102592.78;5054144;28;1353;-73
2021/03/20 13:31:50;;;;;;;;;;;;;;;5.84;58.08;102590.25;5054043;28;956;-73
2021/03/20 13:34:16;;;;;;;;;;;;;;;5.96;58.36;102583.75;5053765;28;2041;-73